Terminal Aerodrome Forecast
Issued by NWS

Home | Current Version | Previous Version | Text Only | Print | Product List | Glossary On
Versions: 1 2 3 4 5 6 7 8 9 10 11 12 13 14 15 16 17 18 19 20
000
FTUS41 KBTV 182320
TAFSLK
TAF
KSLK 182320Z 1900/1924 21005KT P6SM VCSH SCT060
      TEMPO 1900/1902 -SHRA
     FM190700 22006KT P6SM SCT015
     FM190800 23006KT P6SM BKN008
     FM191400 23007KT P6SM BKN015
     FM191500 23008G14KT P6SM BKN020
     FM191700 24009G15KT P6SM BKN035
     FM191800 24010G16KT P6SM SCT040=

USA.gov is the U.S. government's official web portal to all federal, state and local government web resources and services.